Time;durP1;ratioP1;P1;durP2;ratioP2;P2;SDS_P1;SDS_P2;PMS_P1;PMS_P2;Temp;Humidity;BMP_temperature;BMP_pressure;BME280_temperature;BME280_humidity;BME280_pressure;Samples;Min_cycle;Max_cycle;Signal;HPM_P1;HPM_P2
2023/07/06 00:01:26;;;;;;;0.20;0.20;;;;;;;11.52;100.00;96627.91;5073176;28;20036;-80
2023/07/06 00:04:14;;;;;;;0.10;0.10;;;;;;;11.54;100.00;96618.53;5059715;28;20494;-80
2023/07/06 00:06:59;;;;;;;0.10;0.10;;;;;;;11.51;100.00;96629.75;5072032;28;20035;-80
2023/07/06 00:09:45;;;;;;;0.10;0.10;;;;;;;11.45;100.00;96622.72;5058066;28;20040;-80
2023/07/06 00:12:31;;;;;;;0.10;0.10;;;;;;;11.44;100.00;96626.47;5073372;28;20036;-80
2023/07/06 00:15:18;;;;;;;0.10;0.10;;;;;;;11.42;100.00;96629.38;5074055;28;20064;-80
2023/07/06 00:18:04;;;;;;;0.20;0.20;;;;;;;11.38;100.00;96638.97;5074212;28;20035;-80
2023/07/06 00:20:50;;;;;;;0.00;0.00;;;;;;;11.36;100.00;96634.91;5059766;28;20035;-80
2023/07/06 00:23:36;;;;;;;0.10;0.10;;;;;;;11.27;100.00;96637.22;5070918;28;20410;-80
2023/07/06 00:26:22;;;;;;;0.10;0.10;;;;;;;11.21;100.00;96643.59;5057201;28;20074;-80
2023/07/06 00:29:08;;;;;;;0.10;0.10;;;;;;;11.17;100.00;96642.44;5071951;28;20032;-81
2023/07/06 00:32:04;;;;;;;0.10;0.10;;;;;;;11.09;100.00;96640.19;5074219;28;20440;-80
2023/07/06 00:34:50;;;;;;;0.10;0.10;;;;;;;11.02;100.00;96635.00;5042930;28;20078;-80
2023/07/06 00:37:38;;;;;;;0.10;0.10;;;;;;;10.90;100.00;96639.69;5058824;28;20365;-80
2023/07/06 00:40:24;;;;;;;0.10;0.10;;;;;;;10.85;100.00;96639.59;5072696;28;20575;-80
2023/07/06 00:43:20;;;;;;;0.15;0.15;;;;;;;10.83;100.00;96639.03;5056645;28;20094;-80
2023/07/06 00:46:11;;;;;;;0.10;0.10;;;;;;;10.80;100.00;96636.84;5073570;28;20124;-78
2023/07/06 00:49:01;;;;;;;0.10;0.10;;;;;;;10.77;100.00;96643.50;5058498;28;20043;-79
2023/07/06 00:51:47;;;;;;;0.10;0.10;;;;;;;10.56;100.00;96628.16;5057469;28;20044;-79
2023/07/06 00:54:39;;;;;;;0.10;0.10;;;;;;;10.52;100.00;96627.88;5074106;28;20047;-79
2023/07/06 00:57:26;;;;;;;0.10;0.10;;;;;;;10.43;100.00;96633.88;5072909;28;20888;-80
2023/07/06 01:00:12;;;;;;;0.10;0.10;;;;;;;10.36;100.00;96627.88;5057575;28;20575;-80
2023/07/06 01:03:01;;;;;;;0.10;0.10;;;;;;;10.25;100.00;96630.34;5070930;28;20555;-80
2023/07/06 01:05:50;;;;;;;0.10;0.10;;;;;;;10.26;100.00;96626.63;5057176;28;20036;-80
2023/07/06 01:08:37;;;;;;;0.10;0.10;;;;;;;10.24;100.00;96623.38;5072797;28;20040;-79
2023/07/06 01:11:24;;;;;;;0.10;0.10;;;;;;;10.25;100.00;96622.31;5071382;28;20927;-80
2023/07/06 01:14:13;;;;;;;0.10;0.10;;;;;;;10.27;100.00;96625.59;5074305;28;20040;-79
2023/07/06 01:17:05;;;;;;;0.00;0.00;;;;;;;10.27;100.00;96625.59;5073316;28;20104;-80
2023/07/06 01:20:14;;;;;;;0.10;0.10;;;;;;;10.13;100.00;96624.25;5057441;28;20043;-79
2023/07/06 01:23:28;;;;;;;0.10;0.10;;;;;;;10.12;100.00;96629.84;5052057;28;20123;-79
2023/07/06 01:26:48;;;;;;;0.10;0.10;;;;;;;9.84;100.00;96617.31;5071497;28;20118;-80
2023/07/06 01:30:07;;;;;;;0.10;0.10;;;;;;;9.77;100.00;96626.28;5073467;28;20067;-79
2023/07/06 01:33:02;;;;;;;0.08;0.08;;;;;;;9.80;100.00;96637.53;5072328;28;20049;-80
2023/07/06 01:35:57;;;;;;;0.10;0.10;;;;;;;9.75;100.00;96628.38;5071692;28;20052;-80
2023/07/06 01:38:43;;;;;;;0.10;0.10;;;;;;;9.69;100.00;96631.19;5074821;28;20040;-80
2023/07/06 01:41:29;;;;;;;0.10;0.10;;;;;;;9.69;100.00;96636.53;5072889;28;20263;-79
2023/07/06 01:44:16;;;;;;;0.20;0.20;;;;;;;9.65;100.00;96625.53;5059456;28;20044;-79
2023/07/06 01:47:03;;;;;;;0.10;0.10;;;;;;;9.62;100.00;96636.66;5051245;28;20797;-80
2023/07/06 01:49:49;;;;;;;0.10;0.10;;;;;;;9.56;100.00;96632.28;5054104;28;20043;-80
2023/07/06 01:52:50;;;;;;;0.10;0.10;;;;;;;9.60;100.00;96636.09;5071492;28;20043;-80
2023/07/06 01:55:47;;;;;;;0.10;0.10;;;;;;;9.59;100.00;96641.69;5072615;28;20043;-80
2023/07/06 01:58:43;;;;;;;0.10;0.10;;;;;;;9.61;100.00;96635.06;5057118;28;20097;-79
2023/07/06 02:01:38;;;;;;;0.10;0.10;;;;;;;9.59;100.00;96634.47;5057749;28;20043;-79
2023/07/06 02:04:24;;;;;;;0.10;0.10;;;;;;;9.62;100.00;96630.50;5059797;28;20703;-80
2023/07/06 02:07:13;;;;;;;0.10;0.10;;;;;;;9.64;100.00;96633.75;5056784;28;20584;-80
2023/07/06 02:09:59;;;;;;;0.10;0.10;;;;;;;9.61;100.00;96627.03;5042122;28;20109;-80
2023/07/06 02:12:47;;;;;;;0.10;0.10;;;;;;;9.64;100.00;96629.22;5070211;28;20047;-80
2023/07/06 02:15:33;;;;;;;0.20;0.20;;;;;;;9.66;100.00;96635.16;5058085;28;21329;-80
2023/07/06 02:18:19;;;;;;;0.10;0.10;;;;;;;9.68;100.00;96635.72;5056702;28;20039;-80
2023/07/06 02:21:05;;;;;;;0.10;0.10;;;;;;;9.68;100.00;96629.56;5069699;28;20034;-80
2023/07/06 02:23:51;;;;;;;0.10;0.10;;;;;;;9.64;100.00;96629.22;5069654;28;21048;-80
2023/07/06 02:26:37;;;;;;;0.10;0.10;;;;;;;9.65;100.00;96633.53;5072430;28;20028;-79
2023/07/06 02:29:23;;;;;;;0.20;0.20;;;;;;;9.65;100.00;96630.03;5071054;28;20036;-80
2023/07/06 02:32:09;;;;;;;0.10;0.10;;;;;;;9.51;100.00;96636.72;5055774;28;20043;-80
2023/07/06 02:34:55;;;;;;;0.20;0.20;;;;;;;9.40;100.00;96633.00;5056739;28;20055;-80
2023/07/06 02:37:41;;;;;;;0.10;0.10;;;;;;;9.33;100.00;96638.47;5050959;28;20043;-80
2023/07/06 02:40:29;;;;;;;0.10;0.10;;;;;;;9.27;100.00;96630.63;5055566;28;20040;-80
2023/07/06 02:43:16;;;;;;;0.10;0.10;;;;;;;9.26;100.00;96637.00;5070519;28;20853;-79
2023/07/06 02:46:03;;;;;;;0.10;0.10;;;;;;;9.28;100.00;96634.91;5070745;28;20387;-80
2023/07/06 02:48:50;;;;;;;0.10;0.10;;;;;;;9.19;100.00;96623.78;5055470;28;20114;-79
2023/07/06 02:51:36;;;;;;;0.10;0.10;;;;;;;9.11;100.00;96632.97;5056366;28;20035;-79
2023/07/06 02:54:21;;;;;;;0.10;0.10;;;;;;;9.06;100.00;96632.88;5057050;28;20048;-79
2023/07/06 02:57:07;;;;;;;0.10;0.10;;;;;;;8.99;100.00;96623.34;5041069;28;20078;-79
2023/07/06 02:59:56;;;;;;;0.10;0.10;;;;;;;9.06;100.00;96629.38;5072080;28;20039;-79
2023/07/06 03:02:42;;;;;;;0.10;0.10;;;;;;;9.04;100.00;96632.28;5069435;28;20054;-80
2023/07/06 03:05:30;;;;;;;0.10;0.10;;;;;;;9.04;100.00;96621.63;5057708;28;20040;-78
2023/07/06 03:08:16;;;;;;;0.10;0.10;;;;;;;9.08;100.00;96630.75;5069788;28;20086;-78
2023/07/06 03:11:01;;;;;;;0.10;0.10;;;;;;;9.11;100.00;96640.19;5035573;28;20551;-78
2023/07/06 03:13:47;;;;;;;0.10;0.10;;;;;;;9.11;100.00;96640.19;5057417;28;20242;-78
2023/07/06 03:16:39;;;;;;;0.10;0.10;;;;;;;9.05;100.00;96641.09;5070030;28;20044;-79
2023/07/06 03:19:25;;;;;;;0.10;0.10;;;;;;;9.04;100.00;96642.97;5059725;28;20036;-79
2023/07/06 03:22:11;;;;;;;0.10;0.10;;;;;;;9.03;100.00;96648.53;5060978;28;20392;-79
2023/07/06 03:24:59;;;;;;;0.10;0.10;;;;;;;9.01;100.00;96640.75;5061751;28;20067;-79
2023/07/06 03:27:48;;;;;;;0.10;0.10;;;;;;;9.03;100.00;96641.34;5074486;28;20040;-79
2023/07/06 03:30:34;;;;;;;0.10;0.10;;;;;;;9.00;100.00;96643.66;5060544;28;20119;-78
2023/07/06 03:33:20;;;;;;;0.20;0.20;;;;;;;8.86;100.00;96637.75;5075026;28;20036;-79
2023/07/06 03:36:06;;;;;;;0.10;0.10;;;;;;;8.99;100.00;96656.19;5074072;28;20040;-78
2023/07/06 03:38:52;;;;;;;0.10;0.10;;;;;;;9.00;100.00;96655.16;5045735;28;20040;-79
2023/07/06 03:41:39;;;;;;;0.10;0.10;;;;;;;8.98;100.00;96661.78;5075301;28;20040;-79
2023/07/06 03:44:25;;;;;;;0.10;0.10;;;;;;;9.02;100.00;96654.91;5074545;28;20044;-78
2023/07/06 03:47:11;;;;;;;0.22;0.10;;;;;;;8.99;100.00;96658.88;5073665;28;20125;-79
2023/07/06 03:49:57;;;;;;;0.10;0.10;;;;;;;9.00;100.00;96659.66;5075436;28;20083;-79
2023/07/06 03:52:43;;;;;;;0.10;0.10;;;;;;;9.06;100.00;96656.06;5058545;28;20039;-79
2023/07/06 03:55:31;;;;;;;0.10;0.10;;;;;;;9.11;100.00;96649.00;5072882;28;20171;-78
2023/07/06 03:58:21;;;;;;;0.10;0.10;;;;;;;9.11;100.00;96654.34;5073830;28;20576;-78
2023/07/06 04:01:07;;;;;;;0.10;0.10;;;;;;;9.14;100.00;96655.72;5073696;28;20028;-79
2023/07/06 04:03:55;;;;;;;0.10;0.10;;;;;;;9.04;100.00;96656.31;5060748;28;20055;-78
2023/07/06 04:06:45;;;;;;;0.10;0.10;;;;;;;8.97;100.00;96660.97;5060056;28;20860;-79
2023/07/06 04:09:32;;;;;;;0.10;0.10;;;;;;;8.99;100.00;96664.19;5076547;28;20044;-79
2023/07/06 04:12:17;;;;;;;0.10;0.10;;;;;;;9.03;100.00;96664.56;5059286;28;20051;-79
2023/07/06 04:15:06;;;;;;;0.20;0.20;;;;;;;8.99;100.00;96661.53;5068765;28;20490;-79
2023/07/06 04:17:55;;;;;;;0.13;0.13;;;;;;;9.00;100.00;96654.34;5074963;28;20067;-79
2023/07/06 04:20:41;;;;;;;0.08;0.08;;;;;;;8.98;100.00;96664.44;5059580;28;20032;-79
2023/07/06 04:23:27;;;;;;;0.10;0.10;;;;;;;9.09;100.00;96668.94;5075750;28;20040;-79
2023/07/06 04:26:19;;;;;;;0.13;0.13;;;;;;;9.16;100.00;96669.63;5073114;28;20050;-79
2023/07/06 04:29:09;;;;;;;0.10;0.10;;;;;;;9.16;100.00;96665.09;5074464;28;20052;-79
2023/07/06 04:31:56;;;;;;;0.10;0.10;;;;;;;9.22;100.00;96679.38;5074333;28;20068;-79
2023/07/06 04:34:42;;;;;;;0.20;0.20;;;;;;;9.30;100.00;96676.34;5075730;28;20146;-79
2023/07/06 04:37:28;;;;;;;0.10;0.10;;;;;;;9.40;100.00;96675.75;5059181;28;20039;-79
2023/07/06 04:40:18;;;;;;;0.10;0.10;;;;;;;9.60;100.00;96681.53;5074523;28;20040;-79
2023/07/06 04:43:04;;;;;;;0.10;0.10;;;;;;;9.74;100.00;96682.88;5073645;28;20067;-79
2023/07/06 04:45:49;;;;;;;0.20;0.20;;;;;;;9.87;100.00;96680.97;5072919;28;20461;-79
2023/07/06 04:48:36;;;;;;;0.10;0.10;;;;;;;9.94;100.00;96674.41;5073297;28;20036;-79
2023/07/06 04:51:22;;;;;;;0.17;0.17;;;;;;;10.03;100.00;96670.31;5072027;28;20076;-79
2023/07/06 04:54:08;;;;;;;0.10;0.10;;;;;;;10.11;100.00;96674.47;5061234;28;20128;-79
2023/07/06 04:56:55;;;;;;;0.10;0.10;;;;;;;10.21;100.00;96674.66;5058996;28;20143;-78
2023/07/06 04:59:42;;;;;;;0.10;0.10;;;;;;;10.24;100.00;96676.88;5066780;28;20043;-78
2023/07/06 05:02:30;;;;;;;0.10;0.10;;;;;;;10.32;100.00;96684.50;5073198;28;20115;-78
2023/07/06 05:05:17;;;;;;;0.10;0.10;;;;;;;10.34;100.00;96686.94;5074006;28;20112;-78
2023/07/06 05:08:03;;;;;;;0.10;0.10;;;;;;;10.50;100.00;96686.13;5072446;28;20028;-78
2023/07/06 05:10:51;;;;;;;0.10;0.10;;;;;;;10.57;100.00;96689.47;5075064;28;20036;-78
2023/07/06 05:13:37;;;;;;;0.10;0.10;;;;;;;10.60;100.00;96691.69;5058991;28;20113;-79
2023/07/06 05:16:23;;;;;;;0.10;0.10;;;;;;;10.68;100.00;96697.69;5073994;28;20172;-79
2023/07/06 05:19:09;;;;;;;0.10;0.10;;;;;;;10.72;100.00;96688.09;5056282;28;20047;-80
2023/07/06 05:21:55;;;;;;;0.10;0.10;;;;;;;10.84;100.00;96696.88;5073133;28;20032;-79
2023/07/06 05:24:41;;;;;;;0.10;0.10;;;;;;;10.87;100.00;96699.03;5073492;28;20066;-79
2023/07/06 05:27:28;;;;;;;0.10;0.10;;;;;;;10.93;100.00;96698.06;5060159;28;20039;-79
2023/07/06 05:30:14;;;;;;;0.10;0.10;;;;;;;10.91;100.00;96702.06;5071847;28;20629;-78
2023/07/06 05:33:00;;;;;;;0.20;0.20;;;;;;;10.93;100.00;96697.28;5072690;28;20050;-79
2023/07/06 05:35:47;;;;;;;0.20;0.20;;;;;;;11.02;100.00;96706.50;5056363;28;20051;-79
2023/07/06 05:38:33;;;;;;;0.10;0.10;;;;;;;11.12;100.00;96710.13;5074712;28;20430;-79
2023/07/06 05:41:19;;;;;;;0.10;0.10;;;;;;;11.21;100.00;96707.88;5071665;28;20036;-79
2023/07/06 05:44:05;;;;;;;0.10;0.10;;;;;;;11.35;100.00;96709.13;5072393;28;20124;-79
2023/07/06 05:46:50;;;;;;;0.20;0.20;;;;;;;11.55;100.00;96710.47;5073443;28;20035;-80
2023/07/06 05:49:37;;;;;;;0.10;0.10;;;;;;;11.67;100.00;96714.66;5075775;28;20143;-79
2023/07/06 05:52:23;;;;;;;0.10;0.10;;;;;;;11.76;100.00;96714.22;5072163;28;20044;-78
2023/07/06 05:55:11;;;;;;;0.13;0.13;;;;;;;11.83;100.00;96706.81;5072386;28;20040;-80
2023/07/06 05:57:57;;;;;;;0.10;0.10;;;;;;;11.92;100.00;96724.09;5051335;28;20680;-79
2023/07/06 06:00:43;;;;;;;0.10;0.10;;;;;;;11.99;100.00;96716.69;5071053;28;20072;-79
2023/07/06 06:03:29;;;;;;;0.10;0.10;;;;;;;12.05;100.00;96717.53;5058990;28;20032;-79
2023/07/06 06:06:21;;;;;;;0.10;0.10;;;;;;;12.18;100.00;96730.56;5069466;28;20036;-80
2023/07/06 06:09:08;;;;;;;0.10;0.10;;;;;;;12.25;100.00;96723.94;5073129;28;20079;-80
2023/07/06 06:11:54;;;;;;;0.10;0.10;;;;;;;12.32;100.00;96729.09;5047870;28;20044;-80
2023/07/06 06:14:41;;;;;;;0.10;0.10;;;;;;;12.37;100.00;96741.75;5059011;28;20039;-79
2023/07/06 06:17:28;;;;;;;0.10;0.10;;;;;;;12.40;100.00;96746.63;5058850;28;20040;-80
2023/07/06 06:20:14;;;;;;;0.20;0.20;;;;;;;12.45;100.00;96743.97;5069177;28;20126;-79
2023/07/06 06:23:00;;;;;;;0.20;0.20;;;;;;;12.48;100.00;96738.13;5057129;28;20764;-80
2023/07/06 06:25:47;;;;;;;0.10;0.10;;;;;;;12.58;100.00;96745.47;5058080;28;20642;-80
2023/07/06 06:28:33;;;;;;;0.10;0.10;;;;;;;12.69;100.00;96749.88;5073469;28;20053;-80
2023/07/06 06:31:21;;;;;;;0.20;0.20;;;;;;;12.69;100.00;96749.88;5070081;28;20038;-80
2023/07/06 06:34:07;;;;;;;0.10;0.10;;;;;;;12.82;100.00;96755.63;5053173;28;20158;-80
2023/07/06 06:36:53;;;;;;;0.10;0.10;;;;;;;12.85;100.00;96765.06;5055951;28;20381;-80
2023/07/06 06:39:39;;;;;;;0.10;0.10;;;;;;;12.85;100.00;96757.00;5072806;28;20074;-79
2023/07/06 06:42:28;;;;;;;0.10;0.10;;;;;;;12.84;100.00;96763.44;5068269;28;20212;-80
2023/07/06 06:45:16;;;;;;;0.10;0.10;;;;;;;12.95;100.00;96765.13;5040610;28;20040;-80
2023/07/06 06:48:02;;;;;;;0.13;0.13;;;;;;;13.00;100.00;96757.13;5071248;28;20528;-80
2023/07/06 06:50:48;;;;;;;0.10;0.10;;;;;;;13.18;100.00;96766.66;5056085;28;20039;-80
2023/07/06 06:53:34;;;;;;;0.10;0.10;;;;;;;13.22;100.00;96772.34;5069838;28;20042;-80
2023/07/06 06:56:22;;;;;;;0.10;0.10;;;;;;;13.26;100.00;96770.78;5055407;28;20130;-81
2023/07/06 06:59:11;;;;;;;0.10;0.10;;;;;;;13.34;100.00;96773.81;5072478;28;20074;-80
2023/07/06 07:02:01;;;;;;;0.10;0.10;;;;;;;13.34;100.00;96771.13;5068478;28;20825;-79
2023/07/06 07:04:48;;;;;;;0.10;0.10;;;;;;;13.47;100.00;96767.19;5055773;28;20106;-81
2023/07/06 07:07:37;;;;;;;0.10;0.10;;;;;;;13.46;100.00;96765.53;5055001;28;20596;-80
2023/07/06 07:10:26;;;;;;;0.10;0.10;;;;;;;13.59;100.00;96765.09;5070834;28;20118;-80
2023/07/06 07:13:12;;;;;;;0.10;0.10;;;;;;;13.64;100.00;96772.38;5070729;28;20509;-79
2023/07/06 07:15:58;;;;;;;0.10;0.10;;;;;;;13.65;100.00;96763.25;5057829;28;20055;-79
2023/07/06 07:18:45;;;;;;;0.10;0.10;;;;;;;13.74;100.00;96774.31;5070334;28;20063;-80
2023/07/06 07:21:31;;;;;;;0.10;0.10;;;;;;;13.84;100.00;96766.28;5056959;28;20039;-81
2023/07/06 07:24:17;;;;;;;0.10;0.10;;;;;;;13.87;100.00;96765.78;5043955;28;20617;-80
2023/07/06 07:27:04;;;;;;;0.10;0.10;;;;;;;13.88;100.00;96772.78;5070030;28;20051;-81
2023/07/06 07:29:50;;;;;;;0.20;0.20;;;;;;;13.95;100.00;96778.72;5058286;28;20040;-80
2023/07/06 07:32:36;;;;;;;0.03;0.03;;;;;;;13.99;100.00;96774.44;5063194;28;20051;-79
2023/07/06 07:35:22;;;;;;;0.10;0.10;;;;;;;14.08;100.00;96775.53;5070703;28;20063;-79
2023/07/06 07:38:08;;;;;;;0.10;0.10;;;;;;;14.13;100.00;96780.97;5040003;28;20047;-79
2023/07/06 07:40:59;;;;;;;0.10;0.10;;;;;;;14.08;100.00;96769.34;5071094;28;20044;-81
2023/07/06 07:43:47;;;;;;;0.10;0.10;;;;;;;14.15;100.00;96770.72;5057919;28;20951;-80
2023/07/06 07:46:33;;;;;;;0.10;0.10;;;;;;;14.20;100.00;96773.44;5068972;28;20123;-80
2023/07/06 07:49:19;;;;;;;0.10;0.10;;;;;;;14.25;100.00;96766.47;5057663;28;20050;-80
2023/07/06 07:52:06;;;;;;;0.10;0.10;;;;;;;14.30;100.00;96771.88;5069742;28;20032;-80
2023/07/06 07:54:53;;;;;;;0.10;0.10;;;;;;;14.30;100.00;96774.56;5073079;28;20044;-79
2023/07/06 07:57:39;;;;;;;0.10;0.10;;;;;;;14.44;100.00;96767.59;5058605;28;20135;-79
2023/07/06 08:00:25;;;;;;;0.10;0.10;;;;;;;14.57;100.00;96779.78;5055967;28;20048;-78
2023/07/06 08:03:11;;;;;;;0.20;0.20;;;;;;;14.68;100.00;96776.03;5069472;28;20068;-79
2023/07/06 08:06:05;;;;;;;0.20;0.20;;;;;;;14.76;100.00;96778.19;5073411;28;20532;-80
2023/07/06 08:08:51;;;;;;;0.10;0.10;;;;;;;14.84;100.00;96784.94;5075832;28;20117;-80
2023/07/06 08:11:39;;;;;;;0.10;0.10;;;;;;;14.84;100.00;96779.56;5073861;28;20036;-80
2023/07/06 08:14:37;;;;;;;0.10;0.10;;;;;;;14.87;100.00;96776.34;5060560;28;20803;-80
2023/07/06 08:17:23;;;;;;;0.03;0.03;;;;;;;14.96;100.00;96772.84;5073674;28;20036;-79
2023/07/06 08:20:17;;;;;;;0.10;0.10;;;;;;;15.00;100.00;96776.59;5074100;28;20039;-78
2023/07/06 08:23:16;;;;;;;0.10;0.10;;;;;;;15.03;100.00;96789.56;5059665;28;20329;-81
2023/07/06 08:26:04;;;;;;;0.10;0.10;;;;;;;15.12;100.00;96786.34;5059265;28;20040;-80
2023/07/06 08:28:51;;;;;;;0.20;0.20;;;;;;;15.17;100.00;96789.81;5045815;28;20150;-81
2023/07/06 08:31:37;;;;;;;0.22;0.22;;;;;;;15.21;100.00;96785.53;5059859;28;20043;-79
2023/07/06 08:34:26;;;;;;;0.10;0.10;;;;;;;15.29;100.00;96781.47;5046273;28;20036;-80
2023/07/06 08:37:12;;;;;;;0.20;0.20;;;;;;;15.38;100.00;96781.72;5074216;28;20075;-80
2023/07/06 08:39:58;;;;;;;0.10;0.10;;;;;;;15.43;100.00;96784.44;5061053;28;20044;-79
2023/07/06 08:42:46;;;;;;;0.20;0.20;;;;;;;15.49;100.00;96775.28;5071370;28;20481;-79
2023/07/06 08:45:41;;;;;;;0.20;0.20;;;;;;;15.51;100.00;96792.78;5059124;28;20151;-79
2023/07/06 08:48:30;;;;;;;0.20;0.20;;;;;;;15.51;100.00;96784.69;5058199;28;20128;-82
2023/07/06 08:51:22;;;;;;;0.20;0.20;;;;;;;15.66;100.00;96780.38;5045638;28;20440;-78
2023/07/06 08:54:19;;;;;;;0.20;0.20;;;;;;;15.70;100.00;96776.84;5074934;28;20059;-79
2023/07/06 08:57:37;;;;;;;0.17;0.17;;;;;;;15.79;100.00;96788.69;5073817;28;20122;-80
2023/07/06 09:00:27;;;;;;;0.13;0.13;;;;;;;16.02;100.00;96784.59;5039048;28;20087;-80
2023/07/06 09:03:13;;;;;;;0.20;0.20;;;;;;;16.19;100.00;96788.88;5057827;28;20988;-81
2023/07/06 09:06:02;;;;;;;0.10;0.10;;;;;;;16.14;91.04;96773.50;5058981;28;20067;-79
2023/07/06 09:08:53;;;;;;;0.10;0.10;;;;;;;16.34;98.20;96786.09;5059530;28;20125;-80
2023/07/06 09:11:44;;;;;;;0.20;0.20;;;;;;;16.44;100.00;96794.97;5052551;28;20483;-80
2023/07/06 09:14:30;;;;;;;0.10;0.10;;;;;;;16.33;94.95;96787.19;5066453;28;20059;-78
2023/07/06 09:17:16;;;;;;;0.10;0.10;;;;;;;16.33;94.79;96787.97;5056951;28;20028;-79
2023/07/06 09:20:03;;;;;;;0.10;0.10;;;;;;;16.33;96.03;96787.97;5058102;28;20064;-78
2023/07/06 09:22:49;;;;;;;0.20;0.20;;;;;;;16.46;96.98;96791.19;5072398;28;20150;-79
2023/07/06 09:25:42;;;;;;;0.20;0.20;;;;;;;16.69;93.44;96793.25;5045364;28;20557;-78
2023/07/06 09:28:29;;;;;;;0.10;0.10;;;;;;;16.82;93.49;96798.03;5059637;28;20739;-79
2023/07/06 09:31:18;;;;;;;0.20;0.20;;;;;;;16.93;93.36;96788.75;5046937;28;20073;-79
2023/07/06 09:34:10;;;;;;;0.10;0.10;;;;;;;16.96;93.65;96798.19;5058763;28;20039;-79
2023/07/06 09:36:56;;;;;;;0.20;0.20;;;;;;;17.07;94.67;96777.31;5059397;28;20181;-79
2023/07/06 09:39:57;;;;;;;0.20;0.20;;;;;;;17.37;95.82;96787.09;5074892;28;20822;-79
2023/07/06 09:42:44;;;;;;;0.10;0.10;;;;;;;17.62;92.24;96783.34;5072721;28;20071;-79
2023/07/06 09:45:31;;;;;;;0.20;0.20;;;;;;;17.78;90.18;96787.53;5059841;28;20821;-79
2023/07/06 09:48:38;;;;;;;0.20;0.20;;;;;;;17.74;89.65;96789.19;5057533;28;20073;-80
2023/07/06 09:51:43;;;;;;;0.10;0.10;;;;;;;17.87;90.78;96785.81;5057475;28;20043;-78
2023/07/06 09:55:13;;;;;;;0.20;0.20;;;;;;;18.34;90.73;96801.25;5056995;28;20482;-79
2023/07/06 09:58:02;;;;;;;0.15;0.15;;;;;;;18.43;88.81;96789.78;5072267;28;20413;-79
2023/07/06 10:01:20;;;;;;;0.15;0.15;;;;;;;18.43;88.89;96784.34;5058358;28;20709;-79
2023/07/06 10:04:34;;;;;;;0.20;0.20;;;;;;;18.80;86.59;96792.56;5056356;28;20485;-79
2023/07/06 10:07:29;;;;;;;0.20;0.20;;;;;;;18.64;83.73;96786.50;5057853;28;20051;-79
2023/07/06 10:10:33;;;;;;;0.10;0.10;;;;;;;18.92;78.23;96789.41;5071060;28;20036;-79
2023/07/06 10:13:40;;;;;;;0.17;0.17;;;;;;;19.08;78.13;96792.72;5071901;28;20059;-79
2023/07/06 10:16:44;;;;;;;0.20;0.20;;;;;;;19.53;75.54;96784.91;5056103;28;20028;-79
2023/07/06 10:19:53;;;;;;;0.20;0.20;;;;;;;19.65;76.44;96793.41;5058179;28;20040;-79
2023/07/06 10:22:45;;;;;;;0.20;0.20;;;;;;;19.71;82.20;96801.19;5057785;28;20036;-79
2023/07/06 10:25:37;;;;;;;0.20;0.20;;;;;;;20.07;73.89;96791.56;5077540;28;20051;-79
2023/07/06 10:28:31;;;;;;;0.20;0.20;;;;;;;20.00;72.37;96775.69;5081027;28;20044;-79
2023/07/06 10:31:21;;;;;;;0.20;0.20;;;;;;;20.22;72.45;96783.13;5080654;28;20044;-79
2023/07/06 10:34:28;;;;;;;0.20;0.20;;;;;;;20.28;64.97;96804.44;5073766;28;20046;-78
2023/07/06 10:37:16;;;;;;;0.20;0.20;;;;;;;20.31;64.36;96787.56;5046372;28;20035;-79
2023/07/06 10:40:12;;;;;;;0.20;0.20;;;;;;;20.16;59.75;96782.44;5058309;28;20927;-79
2023/07/06 10:43:12;;;;;;;0.10;0.10;;;;;;;20.64;60.31;96800.25;5073083;28;20055;-79
2023/07/06 10:45:59;;;;;;;0.20;0.20;;;;;;;20.75;75.21;96790.75;5073215;28;20505;-79
2023/07/06 10:48:54;;;;;;;0.20;0.20;;;;;;;21.19;55.92;96800.91;5072040;28;20062;-79
2023/07/06 10:51:57;;;;;;;0.20;0.20;;;;;;;22.09;54.83;96787.22;5072907;28;20101;-79
2023/07/06 10:54:46;;;;;;;0.20;0.20;;;;;;;21.85;49.12;96791.09;5045572;28;20570;-80
2023/07/06 10:57:34;;;;;;;0.20;0.20;;;;;;;21.40;51.18;96799.31;5050940;28;20044;-79
2023/07/06 11:00:31;;;;;;;0.20;0.20;;;;;;;22.03;59.63;96788.47;5053484;28;20040;-80
2023/07/06 11:03:27;;;;;;;0.20;0.20;;;;;;;21.18;51.02;96802.00;5069249;28;20494;-80
2023/07/06 11:06:44;;;;;;;0.20;0.20;;;;;;;21.77;54.19;96799.22;5040755;28;20059;-80
2023/07/06 11:10:07;;;;;;;0.20;0.20;;;;;;;22.12;44.70;96783.88;5056006;28;20054;-80
2023/07/06 11:13:04;;;;;;;0.20;0.20;;;;;;;22.78;42.96;96788.22;5058384;28;20047;-81
2023/07/06 11:15:56;;;;;;;0.10;0.10;;;;;;;23.79;42.86;96786.13;5055751;28;20040;-80
2023/07/06 11:18:54;;;;;;;0.20;0.20;;;;;;;23.60;40.78;96800.16;5057835;28;20048;-80
2023/07/06 11:21:48;;;;;;;0.20;0.20;;;;;;;23.89;43.13;96784.97;5056664;28;20043;-79
2023/07/06 11:24:48;;;;;;;0.13;0.13;;;;;;;24.16;41.43;96794.69;5058315;28;20040;-79
2023/07/06 11:27:37;;;;;;;0.20;0.20;;;;;;;23.18;40.41;96792.75;5050372;28;20043;-79
2023/07/06 11:30:54;;;;;;;0.30;0.30;;;;;;;24.00;40.96;96796.38;5056013;28;20660;-78
2023/07/06 11:34:07;;;;;;;0.17;0.17;;;;;;;24.59;39.17;96788.22;5053246;28;20598;-80
2023/07/06 11:37:12;;;;;;;0.20;0.20;;;;;;;25.95;36.79;96785.84;5056615;28;20043;-80
2023/07/06 11:40:06;;;;;;;0.10;0.10;;;;;;;25.75;37.18;96793.78;5056561;28;20144;-79
2023/07/06 11:43:12;;;;;;;0.20;0.20;;;;;;;27.92;31.21;96788.72;5061798;28;20048;-79
2023/07/06 11:46:43;;;;;;;0.10;0.10;;;;;;;28.55;28.93;96783.25;5058435;28;20044;-80
2023/07/06 11:49:59;;;;;;;0.20;0.20;;;;;;;24.16;33.89;96795.50;5059719;28;20128;-80
2023/07/06 11:53:29;;;;;;;0.10;0.10;;;;;;;23.10;45.52;96794.38;5053948;28;20116;-79
2023/07/06 11:56:06;;;;;;;0.10;0.10;;;;;;;22.35;41.17;96787.34;5058834;28;20051;-80
2023/07/06 11:58:57;;;;;;;0.20;0.20;;;;;;;25.97;35.12;96786.31;5073097;28;20143;-79
2023/07/06 12:01:46;;;;;;;0.20;0.20;;;;;;;32.33;25.22;96769.41;5059459;28;20381;-79
2023/07/06 12:04:34;;;;;;;0.10;0.10;;;;;;;31.59;25.28;96765.44;5067979;28;20057;-79
2023/07/06 12:07:30;;;;;;;0.10;0.10;;;;;;;27.03;30.64;96771.66;5072882;28;20047;-79
2023/07/06 12:10:16;;;;;;;0.10;0.10;;;;;;;25.53;36.61;96786.75;5060638;28;20040;-78
2023/07/06 12:13:05;;;;;;;0.20;0.20;;;;;;;32.49;25.81;96767.16;5044227;28;20061;-79
2023/07/06 12:15:56;;;;;;;0.20;0.20;;;;;;;35.84;20.78;96759.25;5044328;28;20490;-78
2023/07/06 12:18:46;;;;;;;0.20;0.20;;;;;;;34.95;21.34;96747.72;5055052;28;20040;-78
2023/07/06 12:21:35;;;;;;;0.25;0.25;;;;;;;36.74;20.47;96763.00;5055366;28;20092;-78
2023/07/06 12:24:26;;;;;;;0.17;0.17;;;;;;;35.33;20.77;96757.09;5054394;28;20048;-79
2023/07/06 12:27:16;;;;;;;0.20;0.20;;;;;;;38.02;18.95;96774.66;5061504;28;20054;-79
2023/07/06 12:30:06;;;;;;;0.10;0.10;;;;;;;39.54;16.84;96767.66;5060322;28;20079;-80
2023/07/06 12:32:53;;;;;;;0.00;0.00;;;;;;;35.20;20.19;96775.44;5074541;28;20050;-79
2023/07/06 12:35:40;;;;;;;0.10;0.10;;;;;;;33.17;22.79;96760.09;5072690;28;20036;-79
2023/07/06 12:38:27;;;;;;;0.20;0.20;;;;;;;36.08;18.85;96757.53;5060990;28;20122;-79
2023/07/06 12:41:21;;;;;;;0.20;0.20;;;;;;;36.63;19.00;96753.94;5050550;28;20052;-79
2023/07/06 12:44:17;;;;;;;0.00;0.00;;;;;;;35.22;18.88;96759.13;5051167;28;20040;-80
2023/07/06 12:47:32;;;;;;;0.10;0.10;;;;;;;29.36;24.56;96788.22;5051198;28;20032;-79
2023/07/06 12:50:26;;;;;;;0.10;0.10;;;;;;;32.96;23.11;96752.44;5051248;28;20106;-80
2023/07/06 12:53:22;;;;;;;0.17;0.17;;;;;;;38.10;18.57;96758.59;5053146;28;20052;-80
2023/07/06 12:56:15;;;;;;;0.10;0.10;;;;;;;38.04;17.43;96760.28;5054051;28;20043;-80
2023/07/06 12:59:02;;;;;;;0.10;0.10;;;;;;;32.87;20.96;96765.84;5045278;28;20064;-80
2023/07/06 13:01:49;;;;;;;0.10;0.10;;;;;;;35.05;20.55;96756.00;5051909;28;20123;-80
2023/07/06 13:04:43;;;;;;;0.10;0.10;;;;;;;35.41;19.77;96759.50;5039737;28;20060;-80
2023/07/06 13:07:31;;;;;;;0.10;0.10;;;;;;;35.67;18.63;96755.38;5053509;28;20044;-81
2023/07/06 13:10:20;;;;;;;0.17;0.17;;;;;;;35.29;19.04;96748.78;5051771;28;20869;-81
2023/07/06 13:13:17;;;;;;;0.20;0.20;;;;;;;34.29;21.26;96753.66;5052918;28;20841;-81
2023/07/06 13:16:18;;;;;;;0.10;0.10;;;;;;;35.15;20.45;96752.41;5065555;28;20094;-82
2023/07/06 13:19:05;;;;;;;0.10;0.10;;;;;;;35.41;20.09;96751.16;5051675;28;20672;-81